sensor_id;sensor_type;location;lat;lon;timestamp;pressure;altitude;pressure_sealevel;temperature;humidity
13581;BME280;6861;46.170;7.222;2023-03-24T00:00:48;95672.28;;;15.26;53.43
13581;BME280;6861;46.170;7.222;2023-03-24T00:03:16;95664.69;;;15.25;53.16
13581;BME280;6861;46.170;7.222;2023-03-24T00:05:45;95659.72;;;15.23;53.55
13581;BME280;6861;46.170;7.222;2023-03-24T00:08:16;95662.16;;;15.20;53.78
13581;BME280;6861;46.170;7.222;2023-03-24T00:10:45;95665.88;;;15.19;53.94
13581;BME280;6861;46.170;7.222;2023-03-24T00:13:14;95669.41;;;15.14;54.38
13581;BME280;6861;46.170;7.222;2023-03-24T00:15:42;95662.88;;;15.12;54.35
13581;BME280;6861;46.170;7.222;2023-03-24T00:18:11;95661.88;;;14.99;54.50
13581;BME280;6861;46.170;7.222;2023-03-24T00:20:39;95659.16;;;14.90;55.16
13581;BME280;6861;46.170;7.222;2023-03-24T00:23:08;95662.88;;;14.89;55.41
13581;BME280;6861;46.170;7.222;2023-03-24T00:25:36;95665.03;;;14.87;55.14
13581;BME280;6861;46.170;7.222;2023-03-24T00:28:07;95678.22;;;14.87;55.53
13581;BME280;6861;46.170;7.222;2023-03-24T00:30:36;95673.41;;;14.89;55.24
13581;BME280;6861;46.170;7.222;2023-03-24T00:33:08;95685.88;;;14.97;55.42
13581;BME280;6861;46.170;7.222;2023-03-24T00:35:37;95687.06;;;14.91;55.57
13581;BME280;6861;46.170;7.222;2023-03-24T00:38:05;95694.13;;;14.82;55.90
13581;BME280;6861;46.170;7.222;2023-03-24T00:40:33;95682.34;;;14.80;55.67
13581;BME280;6861;46.170;7.222;2023-03-24T00:43:01;95677.34;;;14.78;55.55
13581;BME280;6861;46.170;7.222;2023-03-24T00:45:31;95668.38;;;14.79;55.92
13581;BME280;6861;46.170;7.222;2023-03-24T00:48:00;95653.53;;;14.83;55.63
13581;BME280;6861;46.170;7.222;2023-03-24T00:50:28;95657.13;;;14.87;55.16
13581;BME280;6861;46.170;7.222;2023-03-24T00:52:59;95653.91;;;14.90;55.08
13581;BME280;6861;46.170;7.222;2023-03-24T00:55:27;95652.22;;;14.94;54.90
13581;BME280;6861;46.170;7.222;2023-03-24T00:57:55;95649.00;;;14.97;54.73
13581;BME280;6861;46.170;7.222;2023-03-24T01:00:26;95643.44;;;14.99;54.66
13581;BME280;6861;46.170;7.222;2023-03-24T01:02:56;95643.72;;;14.97;54.83
13581;BME280;6861;46.170;7.222;2023-03-24T01:05:26;95635.28;;;14.87;54.93
13581;BME280;6861;46.170;7.222;2023-03-24T01:07:56;95638.59;;;14.70;55.51
13581;BME280;6861;46.170;7.222;2023-03-24T01:10:25;95636.38;;;14.63;55.77
13581;BME280;6861;46.170;7.222;2023-03-24T01:12:55;95641.75;;;14.58;56.63
13581;BME280;6861;46.170;7.222;2023-03-24T01:15:26;95635.34;;;14.51;56.78
13581;BME280;6861;46.170;7.222;2023-03-24T01:17:56;95632.63;;;14.42;57.00
13581;BME280;6861;46.170;7.222;2023-03-24T01:20:28;95634.56;;;14.36;57.32
13581;BME280;6861;46.170;7.222;2023-03-24T01:22:59;95629.09;;;14.33;57.19
13581;BME280;6861;46.170;7.222;2023-03-24T01:25:28;95625.22;;;14.30;57.12
13581;BME280;6861;46.170;7.222;2023-03-24T01:27:57;95623.84;;;14.33;56.80
13581;BME280;6861;46.170;7.222;2023-03-24T01:30:27;95613.69;;;14.40;56.76
13581;BME280;6861;46.170;7.222;2023-03-24T01:32:56;95610.97;;;14.45;57.11
13581;BME280;6861;46.170;7.222;2023-03-24T01:35:25;95605.91;;;14.49;56.90
13581;BME280;6861;46.170;7.222;2023-03-24T01:37:55;95589.63;;;14.47;56.85
13581;BME280;6861;46.170;7.222;2023-03-24T01:40:28;95602.00;;;14.46;57.10
13581;BME280;6861;46.170;7.222;2023-03-24T01:42:57;95598.28;;;14.47;57.15
13581;BME280;6861;46.170;7.222;2023-03-24T01:45:57;95577.91;;;14.39;57.37
13581;BME280;6861;46.170;7.222;2023-03-24T01:48:32;95579.03;;;14.24;57.57
13581;BME280;6861;46.170;7.222;2023-03-24T01:51:05;95579.06;;;14.10;58.62
13581;BME280;6861;46.170;7.222;2023-03-24T01:53:37;95573.22;;;14.00;58.46
13581;BME280;6861;46.170;7.222;2023-03-24T01:56:08;95570.72;;;13.95;58.54
13581;BME280;6861;46.170;7.222;2023-03-24T01:58:40;95566.47;;;13.85;59.59
13581;BME280;6861;46.170;7.222;2023-03-24T02:01:09;95577.75;;;13.86;59.44
13581;BME280;6861;46.170;7.222;2023-03-24T02:03:39;95559.94;;;13.83;59.06
13581;BME280;6861;46.170;7.222;2023-03-24T02:06:08;95563.44;;;13.78;59.89
13581;BME280;6861;46.170;7.222;2023-03-24T02:08:40;95550.13;;;13.74;59.47
13581;BME280;6861;46.170;7.222;2023-03-24T02:11:09;95544.06;;;13.74;59.20
13581;BME280;6861;46.170;7.222;2023-03-24T02:13:37;95541.63;;;13.77;60.14
13581;BME280;6861;46.170;7.222;2023-03-24T02:16:16;95545.22;;;13.82;59.83
13581;BME280;6861;46.170;7.222;2023-03-24T02:18:56;95551.91;;;13.88;59.85
13581;BME280;6861;46.170;7.222;2023-03-24T02:21:48;95547.72;;;13.87;59.28
13581;BME280;6861;46.170;7.222;2023-03-24T02:28:02;95532.72;;;13.87;59.83
13581;BME280;6861;46.170;7.222;2023-03-24T02:30:50;95522.69;;;13.89;59.16
13581;BME280;6861;46.170;7.222;2023-03-24T02:36:57;95534.06;;;13.98;58.76
13581;BME280;6861;46.170;7.222;2023-03-24T02:42:43;95538.22;;;14.13;58.04
13581;BME280;6861;46.170;7.222;2023-03-24T02:45:22;95527.28;;;14.20;58.05
13581;BME280;6861;46.170;7.222;2023-03-24T02:48:05;95533.22;;;14.25;57.11
13581;BME280;6861;46.170;7.222;2023-03-24T02:50:44;95533.69;;;14.27;57.76
13581;BME280;6861;46.170;7.222;2023-03-24T02:53:20;95539.06;;;14.22;57.97
13581;BME280;6861;46.170;7.222;2023-03-24T02:55:53;95529.91;;;14.20;58.00
13581;BME280;6861;46.170;7.222;2023-03-24T02:58:30;95533.81;;;14.22;57.83
13581;BME280;6861;46.170;7.222;2023-03-24T03:01:05;95539.84;;;14.23;58.22
13581;BME280;6861;46.170;7.222;2023-03-24T03:03:37;95555.34;;;14.24;58.16
13581;BME280;6861;46.170;7.222;2023-03-24T03:06:11;95549.47;;;14.27;57.72
13581;BME280;6861;46.170;7.222;2023-03-24T03:08:43;95549.97;;;14.29;57.79
13581;BME280;6861;46.170;7.222;2023-03-24T03:11:15;95558.94;;;14.28;58.02
13581;BME280;6861;46.170;7.222;2023-03-24T03:13:47;95545.78;;;14.28;58.01
13581;BME280;6861;46.170;7.222;2023-03-24T03:16:20;95548.13;;;14.30;58.42
13581;BME280;6861;46.170;7.222;2023-03-24T03:18:54;95553.09;;;14.31;58.40
13581;BME280;6861;46.170;7.222;2023-03-24T03:21:30;95549.38;;;14.32;58.58
13581;BME280;6861;46.170;7.222;2023-03-24T03:24:01;95540.50;;;14.28;58.27
13581;BME280;6861;46.170;7.222;2023-03-24T03:26:32;95514.31;;;14.23;58.56
13581;BME280;6861;46.170;7.222;2023-03-24T03:29:04;95540.16;;;14.21;58.95
13581;BME280;6861;46.170;7.222;2023-03-24T03:31:40;95552.72;;;14.24;59.14
13581;BME280;6861;46.170;7.222;2023-03-24T03:34:14;95549.00;;;14.25;59.28
13581;BME280;6861;46.170;7.222;2023-03-24T03:36:47;95549.13;;;14.20;59.12
13581;BME280;6861;46.170;7.222;2023-03-24T03:39:22;95547.06;;;14.17;59.53
13581;BME280;6861;46.170;7.222;2023-03-24T03:41:53;95550.00;;;14.16;59.41
13581;BME280;6861;46.170;7.222;2023-03-24T03:44:24;95551.56;;;14.17;59.35
13581;BME280;6861;46.170;7.222;2023-03-24T03:46:52;95536.25;;;14.19;59.90
13581;BME280;6861;46.170;7.222;2023-03-24T03:49:21;95538.22;;;14.13;60.10
13581;BME280;6861;46.170;7.222;2023-03-24T03:51:51;95530.34;;;14.13;59.79
13581;BME280;6861;46.170;7.222;2023-03-24T03:54:22;95528.00;;;14.11;59.85
13581;BME280;6861;46.170;7.222;2023-03-24T03:56:53;95523.81;;;14.10;60.48
13581;BME280;6861;46.170;7.222;2023-03-24T03:59:33;95532.28;;;14.07;60.61
13581;BME280;6861;46.170;7.222;2023-03-24T04:02:12;95542.22;;;14.10;60.16
13581;BME280;6861;46.170;7.222;2023-03-24T04:04:57;95539.41;;;14.07;60.21
13581;BME280;6861;46.170;7.222;2023-03-24T04:07:36;95543.22;;;14.01;60.43
13581;BME280;6861;46.170;7.222;2023-03-24T04:10:13;95536.41;;;14.00;60.68
13581;BME280;6861;46.170;7.222;2023-03-24T04:13:12;95548.47;;;14.01;61.22
13581;BME280;6861;46.170;7.222;2023-03-24T04:15:51;95559.69;;;14.06;60.30
13581;BME280;6861;46.170;7.222;2023-03-24T04:18:39;95554.41;;;14.06;61.09
13581;BME280;6861;46.170;7.222;2023-03-24T04:21:24;95558.03;;;13.97;60.83
13581;BME280;6861;46.170;7.222;2023-03-24T04:24:10;95566.75;;;13.84;61.76
13581;BME280;6861;46.170;7.222;2023-03-24T04:26:47;95567.84;;;13.83;61.33
13581;BME280;6861;46.170;7.222;2023-03-24T04:29:25;95562.88;;;13.81;61.45
13581;BME280;6861;46.170;7.222;2023-03-24T04:32:00;95552.75;;;13.74;62.21
13581;BME280;6861;46.170;7.222;2023-03-24T04:34:33;95549.72;;;13.67;62.11
13581;BME280;6861;46.170;7.222;2023-03-24T04:37:06;95543.13;;;13.56;63.22
13581;BME280;6861;46.170;7.222;2023-03-24T04:39:41;95548.09;;;13.44;63.22
13581;BME280;6861;46.170;7.222;2023-03-24T04:42:14;95539.81;;;13.37;63.30
13581;BME280;6861;46.170;7.222;2023-03-24T04:44:44;95539.63;;;13.33;63.33
13581;BME280;6861;46.170;7.222;2023-03-24T04:47:19;95532.13;;;13.27;63.95
13581;BME280;6861;46.170;7.222;2023-03-24T04:49:50;95522.78;;;13.21;63.55
13581;BME280;6861;46.170;7.222;2023-03-24T04:52:18;95548.56;;;13.19;64.13
13581;BME280;6861;46.170;7.222;2023-03-24T04:54:46;95558.84;;;13.15;64.12
13581;BME280;6861;46.170;7.222;2023-03-24T04:57:14;95543.38;;;13.13;63.98
13581;BME280;6861;46.170;7.222;2023-03-24T04:59:42;95533.53;;;13.05;65.27
13581;BME280;6861;46.170;7.222;2023-03-24T05:02:10;95540.44;;;13.01;64.69
13581;BME280;6861;46.170;7.222;2023-03-24T05:04:40;95559.13;;;13.00;65.95
13581;BME280;6861;46.170;7.222;2023-03-24T05:07:08;95558.03;;;13.01;65.45
13581;BME280;6861;46.170;7.222;2023-03-24T05:09:37;95552.00;;;13.00;65.03
13581;BME280;6861;46.170;7.222;2023-03-24T05:12:05;95555.13;;;13.02;65.44
13581;BME280;6861;46.170;7.222;2023-03-24T05:14:33;95577.59;;;13.08;65.48
13581;BME280;6861;46.170;7.222;2023-03-24T05:17:02;95566.47;;;13.17;65.46
13581;BME280;6861;46.170;7.222;2023-03-24T05:19:30;95567.34;;;13.26;65.34
13581;BME280;6861;46.170;7.222;2023-03-24T05:21:59;95566.47;;;13.30;65.33
13581;BME280;6861;46.170;7.222;2023-03-24T05:24:28;95549.53;;;13.36;65.10
13581;BME280;6861;46.170;7.222;2023-03-24T05:26:56;95556.56;;;13.41;64.44
13581;BME280;6861;46.170;7.222;2023-03-24T05:29:24;95551.69;;;13.48;64.29
13581;BME280;6861;46.170;7.222;2023-03-24T05:31:52;95544.78;;;13.52;64.30
13581;BME280;6861;46.170;7.222;2023-03-24T05:34:20;95553.63;;;13.56;64.30
13581;BME280;6861;46.170;7.222;2023-03-24T05:36:48;95564.34;;;13.60;64.68
13581;BME280;6861;46.170;7.222;2023-03-24T05:39:18;95566.88;;;13.65;63.82
13581;BME280;6861;46.170;7.222;2023-03-24T05:41:46;95551.28;;;13.68;64.16
13581;BME280;6861;46.170;7.222;2023-03-24T05:44:14;95509.22;;;13.68;64.48
13581;BME280;6861;46.170;7.222;2023-03-24T05:46:42;95517.22;;;13.63;64.02
13581;BME280;6861;46.170;7.222;2023-03-24T05:49:10;95543.78;;;13.62;64.63
13581;BME280;6861;46.170;7.222;2023-03-24T05:51:38;95551.38;;;13.63;64.50
13581;BME280;6861;46.170;7.222;2023-03-24T05:54:06;95535.22;;;13.56;64.49
13581;BME280;6861;46.170;7.222;2023-03-24T05:56:36;95549.16;;;13.43;65.40
13581;BME280;6861;46.170;7.222;2023-03-24T05:59:04;95559.09;;;13.32;66.00
13581;BME280;6861;46.170;7.222;2023-03-24T06:01:32;95567.84;;;13.28;65.99
13581;BME280;6861;46.170;7.222;2023-03-24T06:04:00;95578.34;;;13.28;65.60
13581;BME280;6861;46.170;7.222;2023-03-24T06:06:28;95592.47;;;13.32;65.55
13581;BME280;6861;46.170;7.222;2023-03-24T06:08:56;95605.03;;;13.35;65.58
13581;BME280;6861;46.170;7.222;2023-03-24T06:11:28;95610.28;;;13.35;66.15
13581;BME280;6861;46.170;7.222;2023-03-24T06:13:57;95623.22;;;13.31;65.75
13581;BME280;6861;46.170;7.222;2023-03-24T06:16:26;95634.78;;;13.30;66.57
13581;BME280;6861;46.170;7.222;2023-03-24T06:18:54;95636.63;;;13.30;66.59
13581;BME280;6861;46.170;7.222;2023-03-24T06:21:22;95649.19;;;13.33;65.69
13581;BME280;6861;46.170;7.222;2023-03-24T06:24:00;95657.16;;;13.28;66.11
13581;BME280;6861;46.170;7.222;2023-03-24T06:26:28;95665.13;;;13.23;67.20
13581;BME280;6861;46.170;7.222;2023-03-24T06:28:58;95673.38;;;13.16;67.51
13581;BME280;6861;46.170;7.222;2023-03-24T06:31:27;95674.22;;;13.11;67.32
13581;BME280;6861;46.170;7.222;2023-03-24T06:33:56;95682.47;;;13.05;67.49
13581;BME280;6861;46.170;7.222;2023-03-24T06:36:24;95688.13;;;12.98;68.41
13581;BME280;6861;46.170;7.222;2023-03-24T06:38:52;95702.81;;;12.99;68.22
13581;BME280;6861;46.170;7.222;2023-03-24T06:41:21;95700.84;;;13.05;67.94
13581;BME280;6861;46.170;7.222;2023-03-24T06:43:49;95697.94;;;13.06;67.64
13581;BME280;6861;46.170;7.222;2023-03-24T06:46:18;95715.25;;;13.07;68.45
13581;BME280;6861;46.170;7.222;2023-03-24T06:48:46;95711.00;;;13.11;67.74
13581;BME280;6861;46.170;7.222;2023-03-24T06:51:14;95716.19;;;13.17;67.31
13581;BME280;6861;46.170;7.222;2023-03-24T06:53:42;95717.19;;;13.21;67.23
13581;BME280;6861;46.170;7.222;2023-03-24T06:56:11;95722.84;;;13.28;68.02
13581;BME280;6861;46.170;7.222;2023-03-24T06:58:43;95728.25;;;13.36;67.84
13581;BME280;6861;46.170;7.222;2023-03-24T07:01:11;95727.31;;;13.46;67.54
13581;BME280;6861;46.170;7.222;2023-03-24T07:03:42;95711.94;;;13.53;66.84
13581;BME280;6861;46.170;7.222;2023-03-24T07:06:10;95698.91;;;13.62;66.77
13581;BME280;6861;46.170;7.222;2023-03-24T07:08:38;95700.56;;;13.71;66.85
13581;BME280;6861;46.170;7.222;2023-03-24T07:11:07;95699.31;;;13.83;66.61
13581;BME280;6861;46.170;7.222;2023-03-24T07:13:36;95702.81;;;13.92;66.11
13581;BME280;6861;46.170;7.222;2023-03-24T07:16:05;95703.78;;;13.96;65.97
13581;BME280;6861;46.170;7.222;2023-03-24T07:18:33;95699.31;;;13.96;65.95
13581;BME280;6861;46.170;7.222;2023-03-24T07:21:03;95694.03;;;13.96;65.86
13581;BME280;6861;46.170;7.222;2023-03-24T07:23:31;95695.31;;;13.99;65.85
13581;BME280;6861;46.170;7.222;2023-03-24T07:25:59;95692.19;;;13.97;65.55
13581;BME280;6861;46.170;7.222;2023-03-24T07:28:28;95697.94;;;13.99;66.38
13581;BME280;6861;46.170;7.222;2023-03-24T07:30:56;95698.44;;;14.01;65.41
13581;BME280;6861;46.170;7.222;2023-03-24T07:33:25;95701.63;;;13.98;66.27
13581;BME280;6861;46.170;7.222;2023-03-24T07:35:53;95705.94;;;13.94;66.25
13581;BME280;6861;46.170;7.222;2023-03-24T07:38:24;95703.38;;;13.89;66.57
13581;BME280;6861;46.170;7.222;2023-03-24T07:40:53;95697.06;;;13.76;66.85
13581;BME280;6861;46.170;7.222;2023-03-24T07:43:21;95690.72;;;13.63;66.92
13581;BME280;6861;46.170;7.222;2023-03-24T07:45:49;95691.69;;;13.54;67.04
13581;BME280;6861;46.170;7.222;2023-03-24T07:48:17;95702.00;;;13.50;67.68
13581;BME280;6861;46.170;7.222;2023-03-24T07:50:45;95694.03;;;13.55;67.19
13581;BME280;6861;46.170;7.222;2023-03-24T07:53:13;95685.28;;;13.60;67.16
13581;BME280;6861;46.170;7.222;2023-03-24T07:55:47;95688.97;;;13.59;67.98
13581;BME280;6861;46.170;7.222;2023-03-24T07:58:15;95705.03;;;13.57;67.16
13581;BME280;6861;46.170;7.222;2023-03-24T08:00:43;95702.41;;;13.57;67.68
13581;BME280;6861;46.170;7.222;2023-03-24T08:03:12;95700.84;;;13.56;67.45
13581;BME280;6861;46.170;7.222;2023-03-24T08:05:41;95698.22;;;13.56;67.48
13581;BME280;6861;46.170;7.222;2023-03-24T08:08:10;95697.72;;;13.54;67.78
13581;BME280;6861;46.170;7.222;2023-03-24T08:10:38;95694.03;;;13.55;67.46
13581;BME280;6861;46.170;7.222;2023-03-24T08:13:08;95709.78;;;13.55;67.31
13581;BME280;6861;46.170;7.222;2023-03-24T08:15:36;95710.56;;;13.56;68.21
13581;BME280;6861;46.170;7.222;2023-03-24T08:18:04;95721.59;;;13.58;67.25
13581;BME280;6861;46.170;7.222;2023-03-24T08:20:33;95724.22;;;13.58;67.69
13581;BME280;6861;46.170;7.222;2023-03-24T08:23:01;95713.41;;;13.59;67.74
13581;BME280;6861;46.170;7.222;2023-03-24T08:25:31;95711.28;;;13.61;67.97
13581;BME280;6861;46.170;7.222;2023-03-24T08:27:59;95721.69;;;13.66;68.13
13581;BME280;6861;46.170;7.222;2023-03-24T08:30:28;95722.59;;;13.75;68.14
13581;BME280;6861;46.170;7.222;2023-03-24T08:32:57;95715.88;;;13.83;67.46
13581;BME280;6861;46.170;7.222;2023-03-24T08:35:29;95704.94;;;13.90;67.19
13581;BME280;6861;46.170;7.222;2023-03-24T08:37:59;95699.31;;;13.96;66.74
13581;BME280;6861;46.170;7.222;2023-03-24T08:40:32;95696.97;;;14.08;67.38
13581;BME280;6861;46.170;7.222;2023-03-24T08:43:02;95704.38;;;14.20;67.20
13581;BME280;6861;46.170;7.222;2023-03-24T08:45:32;95693.16;;;14.28;66.92
13581;BME280;6861;46.170;7.222;2023-03-24T08:48:01;95696.19;;;14.35;67.02
13581;BME280;6861;46.170;7.222;2023-03-24T08:50:33;95688.75;;;14.37;66.45
13581;BME280;6861;46.170;7.222;2023-03-24T08:53:02;95679.41;;;14.31;66.66
13581;BME280;6861;46.170;7.222;2023-03-24T08:55:31;95691.50;;;14.32;66.54
13581;BME280;6861;46.170;7.222;2023-03-24T08:57:59;95681.34;;;14.39;66.78
13581;BME280;6861;46.170;7.222;2023-03-24T09:00:27;95685.66;;;14.49;66.76
13581;BME280;6861;46.170;7.222;2023-03-24T09:02:57;95686.03;;;14.56;66.56
13581;BME280;6861;46.170;7.222;2023-03-24T09:05:27;95683.47;;;14.65;66.27
13581;BME280;6861;46.170;7.222;2023-03-24T09:08:09;95663.72;;;14.76;65.64
13581;BME280;6861;46.170;7.222;2023-03-24T09:10:38;95666.41;;;14.85;65.75
13581;BME280;6861;46.170;7.222;2023-03-24T09:13:06;95678.69;;;14.89;65.50
13581;BME280;6861;46.170;7.222;2023-03-24T09:15:34;95681.31;;;14.89;65.21
13581;BME280;6861;46.170;7.222;2023-03-24T09:18:04;95678.38;;;14.91;65.79
13581;BME280;6861;46.170;7.222;2023-03-24T09:20:33;95669.72;;;14.90;65.65
13581;BME280;6861;46.170;7.222;2023-03-24T09:23:02;95663.47;;;14.86;65.34
13581;BME280;6861;46.170;7.222;2023-03-24T09:25:30;95665.63;;;14.84;65.22
13581;BME280;6861;46.170;7.222;2023-03-24T09:27:58;95654.91;;;14.81;65.07
13581;BME280;6861;46.170;7.222;2023-03-24T09:30:27;95653.66;;;14.78;65.73
13581;BME280;6861;46.170;7.222;2023-03-24T09:32:57;95649.81;;;14.84;65.46
13581;BME280;6861;46.170;7.222;2023-03-24T09:35:27;95664.44;;;14.90;65.26
13581;BME280;6861;46.170;7.222;2023-03-24T09:37:56;95653.31;;;14.93;65.48
13581;BME280;6861;46.170;7.222;2023-03-24T09:40:26;95647.91;;;14.98;65.25
13581;BME280;6861;46.170;7.222;2023-03-24T09:42:59;95647.56;;;15.14;64.81
13581;BME280;6861;46.170;7.222;2023-03-24T09:45:33;95654.75;;;15.22;64.77
13581;BME280;6861;46.170;7.222;2023-03-24T09:48:06;95659.59;;;15.28;64.57
13581;BME280;6861;46.170;7.222;2023-03-24T09:50:42;95655.38;;;15.27;64.32
13581;BME280;6861;46.170;7.222;2023-03-24T09:53:26;95655.69;;;15.26;64.37
13581;BME280;6861;46.170;7.222;2023-03-24T09:55:58;95666.88;;;15.31;64.27
13581;BME280;6861;46.170;7.222;2023-03-24T09:58:31;95667.19;;;15.30;64.23
13581;BME280;6861;46.170;7.222;2023-03-24T10:00:59;95666.34;;;15.21;64.10
13581;BME280;6861;46.170;7.222;2023-03-24T10:03:27;95669.34;;;15.05;64.53
13581;BME280;6861;46.170;7.222;2023-03-24T10:05:59;95664.19;;;15.00;64.66
13581;BME280;6861;46.170;7.222;2023-03-24T10:08:35;95651.34;;;14.99;64.49
13581;BME280;6861;46.170;7.222;2023-03-24T10:11:06;95655.03;;;14.98;64.81
13581;BME280;6861;46.170;7.222;2023-03-24T10:13:46;95646.84;;;14.99;64.49
13581;BME280;6861;46.170;7.222;2023-03-24T10:16:24;95645.28;;;14.98;64.46
13581;BME280;6861;46.170;7.222;2023-03-24T10:18:57;95658.22;;;15.08;64.43
13581;BME280;6861;46.170;7.222;2023-03-24T10:21:34;95649.00;;;15.20;64.42
13581;BME280;6861;46.170;7.222;2023-03-24T10:24:10;95638.97;;;15.30;64.21
13581;BME280;6861;46.170;7.222;2023-03-24T10:26:45;95623.19;;;15.39;63.90
13581;BME280;6861;46.170;7.222;2023-03-24T10:29:22;95623.09;;;15.53;63.58
13581;BME280;6861;46.170;7.222;2023-03-24T10:31:55;95620.25;;;15.71;63.65
13581;BME280;6861;46.170;7.222;2023-03-24T10:34:27;95601.34;;;15.87;62.71
13581;BME280;6861;46.170;7.222;2023-03-24T10:36:59;95611.63;;;15.97;62.96
13581;BME280;6861;46.170;7.222;2023-03-24T10:39:28;95600.47;;;16.00;62.66
13581;BME280;6861;46.170;7.222;2023-03-24T10:42:13;95601.34;;;15.87;63.23
13581;BME280;6861;46.170;7.222;2023-03-24T10:44:46;95596.56;;;15.89;63.44
13581;BME280;6861;46.170;7.222;2023-03-24T10:47:17;95593.63;;;15.99;62.83
13581;BME280;6861;46.170;7.222;2023-03-24T10:49:52;95602.94;;;16.05;62.74
13581;BME280;6861;46.170;7.222;2023-03-24T10:52:22;95596.56;;;15.97;62.86
13581;BME280;6861;46.170;7.222;2023-03-24T10:54:56;95607.91;;;15.98;62.88
13581;BME280;6861;46.170;7.222;2023-03-24T10:57:25;95607.59;;;15.99;62.67
13581;BME280;6861;46.170;7.222;2023-03-24T10:59:56;95608.03;;;15.93;62.68
13581;BME280;6861;46.170;7.222;2023-03-24T11:02:28;95613.47;;;15.88;62.85
13581;BME280;6861;46.170;7.222;2023-03-24T11:05:00;95626.66;;;15.88;62.70
13581;BME280;6861;46.170;7.222;2023-03-24T11:07:33;95628.53;;;15.87;62.78
13581;BME280;6861;46.170;7.222;2023-03-24T11:10:06;95636.75;;;15.86;62.98
13581;BME280;6861;46.170;7.222;2023-03-24T11:12:42;95635.03;;;15.90;62.49
13581;BME280;6861;46.170;7.222;2023-03-24T11:15:16;95638.63;;;15.94;62.87
13581;BME280;6861;46.170;7.222;2023-03-24T11:17:53;95635.84;;;15.99;62.37
13581;BME280;6861;46.170;7.222;2023-03-24T11:20:26;95644.25;;;16.01;62.97
13581;BME280;6861;46.170;7.222;2023-03-24T11:23:02;95637.41;;;16.00;62.64
13581;BME280;6861;46.170;7.222;2023-03-24T11:25:32;95630.56;;;15.99;62.63
13581;BME280;6861;46.170;7.222;2023-03-24T11:28:05;95617.84;;;16.01;62.25
13581;BME280;6861;46.170;7.222;2023-03-24T11:30:43;95620.34;;;16.06;62.56
13581;BME280;6861;46.170;7.222;2023-03-24T11:33:18;95614.59;;;16.04;62.45
13581;BME280;6861;46.170;7.222;2023-03-24T11:36:05;95621.91;;;16.07;62.29
13581;BME280;6861;46.170;7.222;2023-03-24T11:38:40;95622.38;;;16.09;62.21
13581;BME280;6861;46.170;7.222;2023-03-24T11:41:18;95630.75;;;16.11;62.68
13581;BME280;6861;46.170;7.222;2023-03-24T11:43:48;95641.47;;;16.06;62.22
13581;BME280;6861;46.170;7.222;2023-03-24T11:46:17;95647.63;;;15.93;62.34
13581;BME280;6861;46.170;7.222;2023-03-24T11:48:52;95629.56;;;15.78;62.74
13581;BME280;6861;46.170;7.222;2023-03-24T11:51:26;95632.47;;;15.67;63.35
13581;BME280;6861;46.170;7.222;2023-03-24T11:53:57;95641.59;;;15.61;63.66
13581;BME280;6861;46.170;7.222;2023-03-24T11:56:32;95635.25;;;15.62;63.63
13581;BME280;6861;46.170;7.222;2023-03-24T11:59:06;95635.91;;;15.68;63.66
13581;BME280;6861;46.170;7.222;2023-03-24T12:01:42;95648.00;;;15.69;63.80
13581;BME280;6861;46.170;7.222;2023-03-24T12:04:27;95642.75;;;15.78;63.86
13581;BME280;6861;46.170;7.222;2023-03-24T12:07:26;95638.59;;;15.85;63.15
13581;BME280;6861;46.170;7.222;2023-03-24T12:10:02;95642.97;;;15.90;63.45
13581;BME280;6861;46.170;7.222;2023-03-24T12:12:42;95621.09;;;15.98;63.45
13581;BME280;6861;46.170;7.222;2023-03-24T12:15:31;95614.44;;;16.09;63.72
13581;BME280;6861;46.170;7.222;2023-03-24T12:18:22;95604.06;;;16.21;63.74
13581;BME280;6861;46.170;7.222;2023-03-24T12:20:58;95601.44;;;16.38;63.40
13581;BME280;6861;46.170;7.222;2023-03-24T12:23:36;95593.97;;;16.58;63.33
13581;BME280;6861;46.170;7.222;2023-03-24T12:26:17;95593.38;;;16.78;63.00
13581;BME280;6861;46.170;7.222;2023-03-24T12:28:53;95582.47;;;16.88;62.23
13581;BME280;6861;46.170;7.222;2023-03-24T12:31:42;95580.00;;;16.83;62.55
13581;BME280;6861;46.170;7.222;2023-03-24T12:34:31;95570.22;;;16.66;62.59
13581;BME280;6861;46.170;7.222;2023-03-24T12:37:05;95557.66;;;16.46;63.08
13581;BME280;6861;46.170;7.222;2023-03-24T12:39:43;95553.28;;;16.42;63.04
13581;BME280;6861;46.170;7.222;2023-03-24T12:42:17;95557.81;;;16.32;63.35
13581;BME280;6861;46.170;7.222;2023-03-24T12:45:03;95569.75;;;16.30;63.37
13581;BME280;6861;46.170;7.222;2023-03-24T12:47:56;95573.78;;;16.27;63.18
13581;BME280;6861;46.170;7.222;2023-03-24T12:50:36;95581.25;;;16.25;62.81
13581;BME280;6861;46.170;7.222;2023-03-24T12:56:15;95586.06;;;16.23;63.19
13581;BME280;6861;46.170;7.222;2023-03-24T12:58:48;95578.75;;;16.20;63.29
13581;BME280;6861;46.170;7.222;2023-03-24T13:01:21;95570.84;;;16.20;63.71
13581;BME280;6861;46.170;7.222;2023-03-24T13:04:00;95562.59;;;16.13;63.65
13581;BME280;6861;46.170;7.222;2023-03-24T13:06:34;95546.13;;;16.08;63.90
13581;BME280;6861;46.170;7.222;2023-03-24T13:09:13;95539.63;;;16.05;63.84
13581;BME280;6861;46.170;7.222;2023-03-24T13:11:50;95534.81;;;16.07;64.07
13581;BME280;6861;46.170;7.222;2023-03-24T13:14:27;95516.31;;;16.07;64.15
13581;BME280;6861;46.170;7.222;2023-03-24T13:17:03;95509.50;;;16.06;64.35
13581;BME280;6861;46.170;7.222;2023-03-24T13:19:33;95500.31;;;15.95;64.56
13581;BME280;6861;46.170;7.222;2023-03-24T13:22:05;95498.63;;;15.90;64.65
13581;BME280;6861;46.170;7.222;2023-03-24T13:24:38;95508.25;;;15.95;64.54
13581;BME280;6861;46.170;7.222;2023-03-24T13:27:11;95521.28;;;16.00;64.45
13581;BME280;6861;46.170;7.222;2023-03-24T13:30:01;95527.50;;;16.04;64.90
13581;BME280;6861;46.170;7.222;2023-03-24T13:32:35;95526.88;;;16.07;64.11
13581;BME280;6861;46.170;7.222;2023-03-24T13:35:14;95532.78;;;16.13;64.18
13581;BME280;6861;46.170;7.222;2023-03-24T13:37:47;95531.72;;;16.22;64.35
13581;BME280;6861;46.170;7.222;2023-03-24T13:40:20;95534.19;;;16.36;64.38
13581;BME280;6861;46.170;7.222;2023-03-24T13:42:53;95546.75;;;16.48;63.77
13581;BME280;6861;46.170;7.222;2023-03-24T13:45:30;95558.38;;;16.55;63.67
13581;BME280;6861;46.170;7.222;2023-03-24T13:48:05;95561.97;;;16.51;63.87
13581;BME280;6861;46.170;7.222;2023-03-24T13:50:53;95567.44;;;16.37;64.12